IBE1488 LEBL-LEAS
Flight info
| Callsign | IBE1488 |
|---|---|
| Flight time | N/A |
| Altitude | 31000 |
| Route | GRAUS M601 POSSY/N0457F330 M601 BLV M190 LASKU/N0411F230 M190 AMAKA |
| Aircraft | A320/M-SDE3FGHIRWY/LB1 |
Departure
| Time | 2026-04-30 14:33 |
|---|---|
| Airport | Josep Tarradellas Barcelona-El Prat Airport (LEBL) |
Arrival
| Time | N/A |
|---|---|
| Airport | Asturias Airport (LEAS) |
| Time | Latitude | Longitude | Altitude | Speed | Heading |
|---|---|---|---|---|---|
| 2026-04-30 13:38 | 41.29098 | 2.07796 | 19 ft | 0 kts | 155° |
| 2026-04-30 14:22 | 41.29119 | 2.07783 | 19 ft | 4 kts | 155° |
| 2026-04-30 14:23 | 41.29161 | 2.07758 | 22 ft | 4 kts | 137° |
| 2026-04-30 14:23 | 41.29156 | 2.07701 | 19 ft | 4 kts | 65° |
| 2026-04-30 14:24 | 41.29152 | 2.07691 | 20 ft | 0 kts | 64° |
| 2026-04-30 14:27 | 41.29162 | 2.07720 | 19 ft | 6 kts | 64° |
| 2026-04-30 14:27 | 41.29183 | 2.07781 | 19 ft | 7 kts | 65° |
| 2026-04-30 14:27 | 41.29208 | 2.07855 | 21 ft | 10 kts | 66° |
| 2026-04-30 14:28 | 41.29282 | 2.08080 | 20 ft | 13 kts | 65° |
| 2026-04-30 14:28 | 41.29324 | 2.08196 | 19 ft | 15 kts | 66° |
| 2026-04-30 14:28 | 41.29363 | 2.08311 | 19 ft | 12 kts | 72° |
| 2026-04-30 14:28 | 41.29326 | 2.08398 | 20 ft | 12 kts | 143° |
| 2026-04-30 14:29 | 41.29168 | 2.08433 | 20 ft | 12 kts | 201° |
| 2026-04-30 14:29 | 41.29045 | 2.08375 | 19 ft | 11 kts | 199° |
| 2026-04-30 14:30 | 41.28777 | 2.08256 | 17 ft | 14 kts | 198° |
| 2026-04-30 14:31 | 41.28650 | 2.08113 | 18 ft | 18 kts | 245° |
| 2026-04-30 14:31 | 41.28540 | 2.07786 | 16 ft | 18 kts | 246° |
| 2026-04-30 14:31 | 41.28493 | 2.07661 | 16 ft | 10 kts | 234° |
| 2026-04-30 14:32 | 41.28374 | 2.07536 | 16 ft | 19 kts | 204° |
| 2026-04-30 14:32 | 41.28294 | 2.07445 | 17 ft | 14 kts | 239° |
| 2026-04-30 14:32 | 41.28247 | 2.07465 | 18 ft | 8 kts | 97° |
| 2026-04-30 14:33 | 41.28302 | 2.07646 | 21 ft | 51 kts | 66° |
| 2026-04-30 14:33 | 41.28944 | 2.09511 | 70 ft | 157 kts | 68° |
| 2026-04-30 14:33 | 41.29383 | 2.10863 | 647 ft | 162 kts | 69° |
| 2026-04-30 14:34 | 41.29509 | 2.12359 | 1357 ft | 165 kts | 94° |
| 2026-04-30 14:34 | 41.29344 | 2.13874 | 2064 ft | 169 kts | 97° |
| 2026-04-30 14:34 | 41.29123 | 2.15492 | 2489 ft | 186 kts | 99° |
| 2026-04-30 14:34 | 41.28901 | 2.17297 | 2777 ft | 212 kts | 97° |
| 2026-04-30 14:35 | 41.28574 | 2.20587 | 4134 ft | 210 kts | 97° |
| 2026-04-30 14:35 | 41.28317 | 2.23183 | 5155 ft | 214 kts | 98° |
| 2026-04-30 14:35 | 41.28130 | 2.25163 | 5859 ft | 218 kts | 97° |
| 2026-04-30 14:36 | 41.27950 | 2.27157 | 6511 ft | 223 kts | 97° |
| 2026-04-30 14:36 | 41.28126 | 2.29219 | 7123 ft | 231 kts | 64° |
| 2026-04-30 14:36 | 41.29231 | 2.30772 | 7640 ft | 244 kts | 27° |
| 2026-04-30 14:36 | 41.30936 | 2.31332 | 7935 ft | 266 kts | 4° |
| 2026-04-30 14:37 | 41.32860 | 2.31552 | 8331 ft | 286 kts | 4° |
| 2026-04-30 14:37 | 41.34874 | 2.31779 | 9035 ft | 294 kts | 3° |
| 2026-04-30 14:37 | 41.36932 | 2.32019 | 9844 ft | 298 kts | 3° |
| 2026-04-30 14:37 | 41.39029 | 2.32272 | 10408 ft | 312 kts | 3° |
| 2026-04-30 14:38 | 41.41241 | 2.32544 | 10614 ft | 335 kts | 3° |
| 2026-04-30 14:38 | 41.43636 | 2.32866 | 10844 ft | 356 kts | 5° |
| 2026-04-30 14:38 | 41.46129 | 2.33261 | 11415 ft | 363 kts | 359° |
| 2026-04-30 14:38 | 41.48622 | 2.32791 | 12079 ft | 364 kts | 339° |
| 2026-04-30 14:39 | 41.50849 | 2.31239 | 12794 ft | 362 kts | 319° |
| 2026-04-30 14:39 | 41.52558 | 2.28805 | 13499 ft | 361 kts | 300° |
| 2026-04-30 14:39 | 41.53594 | 2.25770 | 14175 ft | 360 kts | 286° |
| 2026-04-30 14:40 | 41.55146 | 2.19405 | 15433 ft | 366 kts | 286° |
| 2026-04-30 14:40 | 41.55932 | 2.16162 | 16075 ft | 368 kts | 286° |
| 2026-04-30 14:40 | 41.56727 | 2.12892 | 16706 ft | 371 kts | 287° |
| 2026-04-30 14:40 | 41.57530 | 2.09598 | 17340 ft | 374 kts | 287° |
| 2026-04-30 14:41 | 41.58338 | 2.06279 | 17945 ft | 377 kts | 287° |
| 2026-04-30 14:41 | 41.59151 | 2.02938 | 18530 ft | 380 kts | 287° |
| 2026-04-30 14:41 | 41.59972 | 1.99561 | 19069 ft | 383 kts | 287° |
| 2026-04-30 14:41 | 41.60787 | 1.96207 | 19606 ft | 386 kts | 287° |
| 2026-04-30 14:42 | 41.61616 | 1.92787 | 20151 ft | 388 kts | 287° |
| 2026-04-30 14:42 | 41.62447 | 1.89344 | 20703 ft | 391 kts | 287° |
| 2026-04-30 14:42 | 41.63284 | 1.85876 | 21233 ft | 393 kts | 287° |
| 2026-04-30 14:42 | 41.64125 | 1.82391 | 21742 ft | 395 kts | 287° |
| 2026-04-30 14:43 | 41.64971 | 1.78881 | 22242 ft | 398 kts | 287° |
| 2026-04-30 14:43 | 41.65821 | 1.75348 | 22720 ft | 400 kts | 287° |
| 2026-04-30 14:43 | 41.66673 | 1.71791 | 23194 ft | 403 kts | 286° |
| 2026-04-30 14:43 | 41.67516 | 1.68257 | 23625 ft | 405 kts | 286° |
| 2026-04-30 14:44 | 41.68376 | 1.64657 | 24007 ft | 407 kts | 286° |
| 2026-04-30 14:44 | 41.69239 | 1.61042 | 24421 ft | 408 kts | 286° |
| 2026-04-30 14:44 | 41.70105 | 1.57421 | 24809 ft | 409 kts | 286° |
| 2026-04-30 14:44 | 41.70974 | 1.53790 | 25197 ft | 410 kts | 286° |
| 2026-04-30 14:45 | 41.71845 | 1.50146 | 25571 ft | 411 kts | 286° |
| 2026-04-30 14:45 | 41.72716 | 1.46493 | 25952 ft | 412 kts | 286° |
| 2026-04-30 14:45 | 41.73584 | 1.42831 | 26317 ft | 413 kts | 286° |
| 2026-04-30 14:45 | 41.74449 | 1.39162 | 26682 ft | 414 kts | 285° |
| 2026-04-30 14:46 | 41.75307 | 1.35521 | 27022 ft | 415 kts | 285° |
| 2026-04-30 14:46 | 41.76176 | 1.31827 | 27368 ft | 416 kts | 285° |
| 2026-04-30 14:46 | 41.77045 | 1.28123 | 27708 ft | 418 kts | 285° |
| 2026-04-30 14:46 | 41.77622 | 1.25663 | 27924 ft | 418 kts | 285° |
| 2026-04-30 14:47 | 41.78789 | 1.20683 | 28346 ft | 420 kts | 285° |
| 2026-04-30 14:47 | 41.79662 | 1.16942 | 28651 ft | 421 kts | 285° |
| 2026-04-30 14:47 | 41.80535 | 1.13197 | 28936 ft | 422 kts | 285° |
| 2026-04-30 14:47 | 41.81398 | 1.09499 | 29049 ft | 419 kts | 285° |
| 2026-04-30 14:48 | 41.83125 | 1.02099 | 29062 ft | 414 kts | 285° |
| 2026-04-30 14:48 | 41.84837 | 0.94730 | 29061 ft | 414 kts | 285° |
| 2026-04-30 14:49 | 41.86545 | 0.87353 | 29059 ft | 414 kts | 285° |
| 2026-04-30 14:49 | 41.88249 | 0.79983 | 29059 ft | 414 kts | 285° |
| 2026-04-30 14:50 | 41.90789 | 0.68947 | 29052 ft | 414 kts | 285° |
| 2026-04-30 14:51 | 41.93323 | 0.57866 | 29046 ft | 414 kts | 285° |
| 2026-04-30 14:52 | 41.95827 | 0.46827 | 29043 ft | 414 kts | 285° |
| 2026-04-30 14:52 | 41.98584 | 0.35822 | 29040 ft | 417 kts | 294° |
| 2026-04-30 14:53 | 42.02523 | 0.25395 | 29046 ft | 417 kts | 294° |
| 2026-04-30 14:54 | 42.07710 | 0.11496 | 29049 ft | 417 kts | 294° |
| 2026-04-30 14:55 | 42.11621 | 0.01015 | 29053 ft | 418 kts | 294° |
| 2026-04-30 14:56 | 42.16799 | -0.12961 | 29064 ft | 418 kts | 294° |
| 2026-04-30 14:57 | 42.20678 | -0.23497 | 29068 ft | 418 kts | 294° |
| 2026-04-30 14:58 | 42.25843 | -0.37516 | 29065 ft | 419 kts | 294° |
| 2026-04-30 14:58 | 42.29706 | -0.48096 | 29057 ft | 419 kts | 294° |
| 2026-04-30 15:00 | 42.36135 | -0.65711 | 29057 ft | 419 kts | 294° |
| 2026-04-30 15:01 | 42.41263 | -0.79874 | 29053 ft | 419 kts | 293° |
| 2026-04-30 15:01 | 42.44584 | -0.89080 | 29056 ft | 419 kts | 293° |
| 2026-04-30 15:02 | 42.47112 | -0.96123 | 29048 ft | 419 kts | 293° |
| 2026-04-30 15:03 | 42.53476 | -1.13896 | 29067 ft | 419 kts | 293° |
| 2026-04-30 15:04 | 42.59798 | -1.31666 | 29063 ft | 419 kts | 293° |
| 2026-04-30 15:06 | 42.66100 | -1.49469 | 29069 ft | 420 kts | 293° |
| 2026-04-30 15:07 | 42.71137 | -1.63793 | 29079 ft | 420 kts | 293° |
| 2026-04-30 15:08 | 42.76868 | -1.77587 | 29076 ft | 422 kts | 300° |
| 2026-04-30 15:09 | 42.84761 | -1.94425 | 29068 ft | 422 kts | 300° |
| 2026-04-30 15:10 | 42.91054 | -2.07869 | 29060 ft | 422 kts | 300° |
| 2026-04-30 15:11 | 43.00494 | -2.28161 | 29065 ft | 423 kts | 300° |
| 2026-04-30 15:13 | 43.08414 | -2.45033 | 29069 ft | 423 kts | 300° |
| 2026-04-30 15:14 | 43.19240 | -2.68298 | 29095 ft | 424 kts | 300° |
| 2026-04-30 15:17 | 43.31552 | -3.00062 | 29104 ft | 420 kts | 281° |
| 2026-04-30 15:19 | 43.36264 | -3.31534 | 29085 ft | 422 kts | 281° |